PWSweather.com
Personal Weather Stations
Station Observations
LABLIDAR
PotenzaIT

PotenzaIT

Lat: 40.6467, Lon: 15.809

Elevation: 2395

Station Type: Oregon WMRS200

Latest ConditionsUpdated 8:32:52 AM GMT+01:01 Friday, Apr 25, 2014
Currently Today's Max Today's Min Today's Average
Temperature 69.8°F21.0°C 69.8°F21.0°C 65.5°F18.6°C 66.2°F19.0°C
Dew Point 45.9°F7.7°C 46.0°F7.8°C 43.6°F6.4°C 44.1°F6.7°C
Winds - N16091.8 kmh N 3.1 mph N5.0 kmh N - 0.6 mph 1.0 kmh
Wind Gusts -- 4.5 mph7.2 kmh - -
Humidity 42% 45% 42% 45%
Pressure 27.58 in934.0 mb 27.61 in935.0 mb 27.58 in934.0 mb -
Hour Temp Dew Point Humidity Winds Wind Gusts Pressure Precip Precip Rate Daily Precip Total
08:32 AM 69.8°F21.0°C 45.9°F7.7°C 42% - N16091.8 kmh N -- 27.58 in934.0 mb 0.00 in0.0 mm 0.00 in/hr0.0 mm/hr 0.00 in0.0 mm
08:27 AM 69.5°F20.8°C 46.0°F7.8°C 43% - N16091.8 kmh N -- 27.58 in934.0 mb 0.00 in0.0 mm 0.00 in/hr0.0 mm/hr 0.00 in0.0 mm
08:22 AM 69.2°F20.7°C 45.8°F7.7°C 43% - N16091.8 kmh N -- 27.58 in934.0 mb 0.00 in0.0 mm 0.00 in/hr0.0 mm/hr 0.00 in0.0 mm
08:17 AM 69.0°F20.6°C 45.6°F7.6°C 43% - N16091.8 kmh N -- 27.58 in934.0 mb 0.00 in0.0 mm 0.00 in/hr0.0 mm/hr 0.00 in0.0 mm
08:12 AM 68.8°F20.4°C 45.4°F7.4°C 43% - N16091.8 kmh N -- 27.58 in934.0 mb 0.00 in0.0 mm 0.00 in/hr0.0 mm/hr 0.00 in0.0 mm
08:07 AM 68.5°F20.3°C 45.1°F7.3°C 43% - N16091.8 kmh N -- 27.58 in934.0 mb 0.00 in0.0 mm 0.00 in/hr0.0 mm/hr 0.00 in0.0 mm
08:02 AM 68.3°F20.2°C 45.0°F7.2°C 43% - N16091.8 kmh N -- 27.58 in934.0 mb 0.00 in0.0 mm 0.00 in/hr0.0 mm/hr 0.00 in0.0 mm
07:57 AM 68.0°F20.0°C 45.2°F7.3°C 43% - N16091.8 kmh N -- 27.58 in934.0 mb 0.00 in0.0 mm 0.00 in/hr0.0 mm/hr 0.00 in0.0 mm
07:52 AM 67.7°F19.8°C 45.1°F7.3°C 44% - N16091.8 kmh N -- 27.58 in934.0 mb 0.00 in0.0 mm 0.00 in/hr0.0 mm/hr 0.00 in0.0 mm
07:47 AM 67.4°F19.7°C 44.8°F7.1°C 44% - N16091.8 kmh N -- 27.58 in934.0 mb 0.00 in0.0 mm 0.00 in/hr0.0 mm/hr 0.00 in0.0 mm
07:42 AM 67.2°F19.6°C 44.6°F7.0°C 44% - N16091.8 kmh N -- 27.58 in934.0 mb 0.00 in0.0 mm 0.00 in/hr0.0 mm/hr 0.00 in0.0 mm
07:37 AM 67.0°F19.4°C 44.4°F6.9°C 44% Calm Calm 2.7 mph4.3 kmh 27.58 in934.0 mb 0.00 in0.0 mm 0.00 in/hr0.0 mm/hr 0.00 in0.0 mm
07:32 AM 66.9°F19.4°C 44.5°F6.9°C 44% Calm Calm 2.7 mph4.3 kmh 27.58 in934.0 mb 0.00 in0.0 mm 0.00 in/hr0.0 mm/hr 0.00 in0.0 mm
07:27 AM 66.7°F19.3°C 44.7°F7.1°C 45% 1.9 mph NNW3.1 kmh NNW 2.5 mph4.0 kmh 27.58 in934.0 mb 0.00 in0.0 mm 0.00 in/hr0.0 mm/hr 0.00 in0.0 mm
07:22 AM 66.3°F19.1°C 44.4°F6.9°C 45% 3.1 mph N5.0 kmh N 4.5 mph7.2 kmh 27.58 in934.0 mb 0.00 in0.0 mm 0.00 in/hr0.0 mm/hr 0.00 in0.0 mm
07:17 AM 65.9°F18.8°C 44.0°F6.7°C 45% 2.9 mph NE4.7 kmh NE 4.5 mph7.2 kmh 27.58 in934.0 mb 0.00 in0.0 mm 0.00 in/hr0.0 mm/hr 0.00 in0.0 mm
07:12 AM 65.8°F18.8°C 43.9°F6.6°C 45% 2.9 mph ESE4.7 kmh ESE 3.4 mph5.5 kmh 27.58 in934.0 mb 0.00 in0.0 mm 0.00 in/hr0.0 mm/hr 0.00 in0.0 mm
07:07 AM 65.8°F18.8°C 43.9°F6.6°C 45% - N16091.8 kmh N -- 27.58 in934.0 mb 0.00 in0.0 mm 0.00 in/hr0.0 mm/hr 0.00 in0.0 mm
07:02 AM 65.8°F18.8°C 43.9°F6.6°C 45% - N16091.8 kmh N -- 27.58 in934.0 mb 0.00 in0.0 mm 0.00 in/hr0.0 mm/hr 0.00 in0.0 mm
06:57 AM 65.8°F18.8°C 43.9°F6.6°C 45% - N16091.8 kmh N -- 27.58 in934.0 mb 0.00 in0.0 mm 0.00 in/hr0.0 mm/hr 0.00 in0.0 mm
06:52 AM 65.8°F18.8°C 43.9°F6.6°C 45% - N16091.8 kmh N -- 27.58 in934.0 mb 0.00 in0.0 mm 0.00 in/hr0.0 mm/hr 0.00 in0.0 mm
06:47 AM 66.0°F18.9°C 44.1°F6.7°C 45% - N16091.8 kmh N -- 27.58 in934.0 mb 0.00 in0.0 mm 0.00 in/hr0.0 mm/hr 0.00 in0.0 mm
06:42 AM 66.0°F18.9°C 44.1°F6.7°C 45% Calm Calm -- 27.58 in934.0 mb 0.00 in0.0 mm 0.00 in/hr0.0 mm/hr 0.00 in0.0 mm
06:37 AM 66.0°F18.9°C 44.1°F6.7°C 45% Calm Calm -- 27.58 in934.0 mb 0.00 in0.0 mm 0.00 in/hr0.0 mm/hr 0.00 in0.0 mm
06:32 AM 66.0°F18.9°C 44.1°F6.7°C 45% Calm Calm 0.9 mph1.4 kmh 27.58 in934.0 mb 0.00 in0.0 mm 0.00 in/hr0.0 mm/hr 0.00 in0.0 mm
06:27 AM 65.7°F18.7°C 43.8°F6.6°C 45% 0.4 mph SSW0.6 kmh SSW 0.9 mph1.4 kmh 27.58 in934.0 mb 0.00 in0.0 mm 0.00 in/hr0.0 mm/hr 0.00 in0.0 mm
06:22 AM 65.5°F18.6°C 43.6°F6.4°C 45% Calm Calm -- 27.58 in934.0 mb 0.00 in0.0 mm 0.00 in/hr0.0 mm/hr 0.00 in0.0 mm
06:17 AM 65.5°F18.6°C 43.6°F6.4°C 45% - N16091.8 kmh N -- 27.58 in934.0 mb 0.00 in0.0 mm 0.00 in/hr0.0 mm/hr 0.00 in0.0 mm
06:12 AM 65.5°F18.6°C 43.6°F6.4°C 45% - N16091.8 kmh N -- 27.58 in934.0 mb 0.00 in0.0 mm 0.00 in/hr0.0 mm/hr 0.00 in0.0 mm
06:07 AM 65.6°F18.7°C 43.7°F6.5°C 45% - N16091.8 kmh N -- 27.58 in934.0 mb 0.00 in0.0 mm 0.00 in/hr0.0 mm/hr 0.00 in0.0 mm
06:02 AM 65.7°F18.7°C 43.8°F6.6°C 45% - N16091.8 kmh N -- 27.58 in934.0 mb 0.00 in0.0 mm 0.00 in/hr0.0 mm/hr 0.00 in0.0 mm
05:57 AM 65.8°F18.8°C 43.9°F6.6°C 45% - N16091.8 kmh N -- 27.58 in934.0 mb 0.00 in0.0 mm 0.00 in/hr0.0 mm/hr 0.00 in0.0 mm
05:52 AM 65.8°F18.8°C 43.9°F6.6°C 45% - N16091.8 kmh N -- 27.58 in934.0 mb 0.00 in0.0 mm 0.00 in/hr0.0 mm/hr 0.00 in0.0 mm
05:47 AM 66.0°F18.9°C 44.1°F6.7°C 45% - N16091.8 kmh N -- 27.58 in934.0 mb 0.00 in0.0 mm 0.00 in/hr0.0 mm/hr 0.00 in0.0 mm
05:42 AM 66.0°F18.9°C 44.1°F6.7°C 45% - N16091.8 kmh N -- 27.58 in934.0 mb 0.00 in0.0 mm 0.00 in/hr0.0 mm/hr 0.00 in0.0 mm
05:37 AM 65.9°F18.8°C 44.0°F6.7°C 45% - N16091.8 kmh N -- 27.58 in934.0 mb 0.00 in0.0 mm 0.00 in/hr0.0 mm/hr 0.00 in0.0 mm
05:32 AM 65.6°F18.7°C 43.7°F6.5°C 45% - N16091.8 kmh N -- 27.58 in934.0 mb 0.00 in0.0 mm 0.00 in/hr0.0 mm/hr 0.00 in0.0 mm
05:27 AM 65.5°F18.6°C 43.6°F6.4°C 45% - N16091.8 kmh N -- 27.58 in934.0 mb 0.00 in0.0 mm 0.00 in/hr0.0 mm/hr 0.00 in0.0 mm
05:22 AM 65.6°F18.7°C 43.7°F6.5°C 45% - N16091.8 kmh N -- 27.58 in934.0 mb 0.00 in0.0 mm 0.00 in/hr0.0 mm/hr 0.00 in0.0 mm
05:17 AM 65.7°F18.7°C 43.8°F6.6°C 45% - N16091.8 kmh N -- 27.58 in934.0 mb 0.00 in0.0 mm 0.00 in/hr0.0 mm/hr 0.00 in0.0 mm
05:12 AM 65.8°F18.8°C 43.9°F6.6°C 45% - N16091.8 kmh N -- 27.58 in934.0 mb 0.00 in0.0 mm 0.00 in/hr0.0 mm/hr 0.00 in0.0 mm
05:07 AM 65.8°F18.8°C 43.9°F6.6°C 45% - N16091.8 kmh N -- 27.58 in934.0 mb 0.00 in0.0 mm 0.00 in/hr0.0 mm/hr 0.00 in0.0 mm
05:02 AM 65.9°F18.8°C 44.0°F6.7°C 45% - N16091.8 kmh N -- 27.58 in934.0 mb 0.00 in0.0 mm 0.00 in/hr0.0 mm/hr 0.00 in0.0 mm
04:57 AM 66.0°F18.9°C 44.1°F6.7°C 45% - N16091.8 kmh N -- 27.58 in934.0 mb 0.00 in0.0 mm 0.00 in/hr0.0 mm/hr 0.00 in0.0 mm
04:52 AM 66.1°F18.9°C 44.2°F6.8°C 45% Calm Calm -- 27.58 in934.0 mb 0.00 in0.0 mm 0.00 in/hr0.0 mm/hr 0.00 in0.0 mm
04:47 AM 66.2°F19.0°C 44.3°F6.8°C 45% Calm Calm -- 27.58 in934.0 mb 0.00 in0.0 mm 0.00 in/hr0.0 mm/hr 0.00 in0.0 mm
04:42 AM 66.0°F18.9°C 44.0°F6.7°C 45% Calm Calm -- 27.58 in934.0 mb 0.00 in0.0 mm 0.00 in/hr0.0 mm/hr 0.00 in0.0 mm
04:37 AM 65.7°F18.7°C 43.8°F6.6°C 45% Calm Calm -- 27.58 in934.0 mb 0.00 in0.0 mm 0.00 in/hr0.0 mm/hr 0.00 in0.0 mm
04:32 AM 65.6°F18.7°C 43.7°F6.5°C 45% Calm Calm 0.9 mph1.4 kmh 27.58 in934.0 mb 0.00 in0.0 mm 0.00 in/hr0.0 mm/hr 0.00 in0.0 mm
04:27 AM 65.7°F18.7°C 43.8°F6.6°C 45% Calm Calm 0.9 mph1.4 kmh 27.58 in934.0 mb 0.00 in0.0 mm 0.00 in/hr0.0 mm/hr 0.00 in0.0 mm
04:22 AM 65.7°F18.7°C 43.8°F6.6°C 45% Calm Calm -- 27.58 in934.0 mb 0.00 in0.0 mm 0.00 in/hr0.0 mm/hr 0.00 in0.0 mm
04:17 AM 65.8°F18.8°C 43.9°F6.6°C 45% Calm Calm -- 27.58 in934.0 mb 0.00 in0.0 mm 0.00 in/hr0.0 mm/hr 0.00 in0.0 mm
04:12 AM 65.8°F18.8°C 43.9°F6.6°C 45% Calm Calm 2.7 mph4.3 kmh 27.58 in934.0 mb 0.00 in0.0 mm 0.00 in/hr0.0 mm/hr 0.00 in0.0 mm
04:07 AM 66.0°F18.9°C 44.1°F6.7°C 45% Calm Calm 2.7 mph4.3 kmh 27.58 in934.0 mb 0.00 in0.0 mm 0.00 in/hr0.0 mm/hr 0.00 in0.0 mm
04:02 AM 66.0°F18.9°C 44.1°F6.7°C 45% 1.2 mph W1.9 kmh W 2.5 mph4.0 kmh 27.58 in934.0 mb 0.00 in0.0 mm 0.00 in/hr0.0 mm/hr 0.00 in0.0 mm
03:57 AM 66.1°F18.9°C 44.1°F6.7°C 45% 0.2 mph NNE0.3 kmh NNE 2.7 mph4.3 kmh 27.58 in934.0 mb 0.00 in0.0 mm 0.00 in/hr0.0 mm/hr 0.00 in0.0 mm
03:52 AM 66.2°F19.0°C 44.2°F6.8°C 45% Calm Calm 3.4 mph5.5 kmh 27.58 in934.0 mb 0.00 in0.0 mm 0.00 in/hr0.0 mm/hr 0.00 in0.0 mm
03:47 AM 65.9°F18.8°C 44.0°F6.7°C 45% 1.0 mph NNW1.6 kmh NNW 3.4 mph5.5 kmh 27.58 in934.0 mb 0.00 in0.0 mm 0.00 in/hr0.0 mm/hr 0.00 in0.0 mm
03:42 AM 65.7°F18.7°C 43.8°F6.6°C 45% 0.8 mph ENE1.3 kmh ENE 3.1 mph5.0 kmh 27.58 in934.0 mb 0.00 in0.0 mm 0.00 in/hr0.0 mm/hr 0.00 in0.0 mm
03:37 AM 65.7°F18.7°C 43.8°F6.6°C 45% 0.9 mph WSW1.4 kmh WSW 3.1 mph5.0 kmh 27.58 in934.0 mb 0.00 in0.0 mm 0.00 in/hr0.0 mm/hr 0.00 in0.0 mm
03:32 AM 65.7°F18.7°C 43.8°F6.6°C 45% Calm Calm 1.3 mph2.1 kmh 27.58 in934.0 mb 0.00 in0.0 mm 0.00 in/hr0.0 mm/hr 0.00 in0.0 mm
03:27 AM 65.8°F18.8°C 43.9°F6.6°C 45% 0.7 mph NW1.1 kmh NW 1.3 mph2.1 kmh 27.58 in934.0 mb 0.00 in0.0 mm 0.00 in/hr0.0 mm/hr 0.00 in0.0 mm
03:22 AM 65.8°F18.8°C 43.9°F6.6°C 45% Calm Calm 4.5 mph7.2 kmh 27.58 in934.0 mb 0.00 in0.0 mm 0.00 in/hr0.0 mm/hr 0.00 in0.0 mm
03:17 AM 65.9°F18.8°C 44.0°F6.7°C 45% Calm Calm 4.5 mph7.2 kmh 27.58 in934.0 mb 0.00 in0.0 mm 0.00 in/hr0.0 mm/hr 0.00 in0.0 mm
03:12 AM 66.0°F18.9°C 44.1°F6.7°C 45% 0.4 mph SW0.6 kmh SW 3.6 mph5.8 kmh 27.58 in934.0 mb 0.00 in0.0 mm 0.00 in/hr0.0 mm/hr 0.00 in0.0 mm
03:07 AM 66.0°F18.9°C 44.1°F6.7°C 45% 1.6 mph SW2.6 kmh SW 3.6 mph5.8 kmh 27.58 in934.0 mb 0.00 in0.0 mm 0.00 in/hr0.0 mm/hr 0.00 in0.0 mm
03:02 AM 66.1°F18.9°C 44.2°F6.8°C 45% 0.2 mph NW0.3 kmh NW 2.7 mph4.3 kmh 27.58 in934.0 mb 0.00 in0.0 mm 0.00 in/hr0.0 mm/hr 0.00 in0.0 mm
02:57 AM 66.2°F19.0°C 44.3°F6.8°C 45% 0.3 mph NNE0.5 kmh NNE 2.2 mph3.5 kmh 27.58 in934.0 mb 0.00 in0.0 mm 0.00 in/hr0.0 mm/hr 0.00 in0.0 mm
02:52 AM 66.0°F18.9°C 44.1°F6.7°C 45% 0.7 mph NW1.1 kmh NW 2.5 mph4.0 kmh 27.58 in934.0 mb 0.00 in0.0 mm 0.00 in/hr0.0 mm/hr 0.00 in0.0 mm
02:47 AM 65.7°F18.7°C 43.8°F6.6°C 45% 1.0 mph SW1.6 kmh SW 2.5 mph4.0 kmh 27.58 in934.0 mb 0.00 in0.0 mm 0.00 in/hr0.0 mm/hr 0.00 in0.0 mm
02:42 AM 65.7°F18.7°C 43.8°F6.6°C 45% 1.4 mph WSW2.3 kmh WSW 4.0 mph6.4 kmh 27.58 in934.0 mb 0.00 in0.0 mm 0.00 in/hr0.0 mm/hr 0.00 in0.0 mm
02:37 AM 65.7°F18.7°C 43.8°F6.6°C 45% 1.3 mph NW2.1 kmh NW 4.0 mph6.4 kmh 27.58 in934.0 mb 0.00 in0.0 mm 0.00 in/hr0.0 mm/hr 0.00 in0.0 mm
02:32 AM 65.8°F18.8°C 43.9°F6.6°C 45% 2.0 mph N3.2 kmh N 4.0 mph6.4 kmh 27.58 in934.0 mb 0.00 in0.0 mm 0.00 in/hr0.0 mm/hr 0.00 in0.0 mm
02:27 AM 65.8°F18.8°C 43.9°F6.6°C 45% 0.9 mph NW1.4 kmh NW 3.4 mph5.5 kmh 27.58 in934.0 mb 0.00 in0.0 mm 0.00 in/hr0.0 mm/hr 0.00 in0.0 mm
02:22 AM 66.0°F18.9°C 44.0°F6.7°C 45% 0.7 mph W1.1 kmh W 2.9 mph4.7 kmh 27.58 in934.0 mb 0.00 in0.0 mm 0.00 in/hr0.0 mm/hr 0.00 in0.0 mm
02:17 AM 66.0°F18.9°C 44.1°F6.7°C 45% 0.4 mph WNW0.6 kmh WNW 2.9 mph4.7 kmh 27.58 in934.0 mb 0.00 in0.0 mm 0.00 in/hr0.0 mm/hr 0.00 in0.0 mm
02:12 AM 66.1°F18.9°C 44.2°F6.8°C 45% 0.9 mph N1.4 kmh N 2.9 mph4.7 kmh 27.58 in934.0 mb 0.00 in0.0 mm 0.00 in/hr0.0 mm/hr 0.00 in0.0 mm
02:07 AM 66.2°F19.0°C 44.3°F6.8°C 45% Calm Calm 2.7 mph4.3 kmh 27.58 in934.0 mb 0.00 in0.0 mm 0.00 in/hr0.0 mm/hr 0.00 in0.0 mm
02:02 AM 66.2°F19.0°C 44.3°F6.8°C 45% 0.8 mph NNW1.3 kmh NNW 2.7 mph4.3 kmh 27.58 in934.0 mb 0.00 in0.0 mm 0.00 in/hr0.0 mm/hr 0.00 in0.0 mm
01:57 AM 66.2°F19.0°C 44.2°F6.8°C 45% Calm Calm 4.0 mph6.4 kmh 27.58 in934.0 mb 0.00 in0.0 mm 0.00 in/hr0.0 mm/hr 0.00 in0.0 mm
01:52 AM 65.9°F18.8°C 44.0°F6.7°C 45% 2.1 mph SW3.4 kmh SW 4.0 mph6.4 kmh 27.58 in934.0 mb 0.00 in0.0 mm 0.00 in/hr0.0 mm/hr 0.00 in0.0 mm
01:47 AM 65.8°F18.8°C 43.9°F6.6°C 45% 1.9 mph WNW3.1 kmh WNW 4.0 mph6.4 kmh 27.58 in934.0 mb 0.00 in0.0 mm 0.00 in/hr0.0 mm/hr 0.00 in0.0 mm
01:42 AM 65.8°F18.8°C 43.9°F6.6°C 45% 1.3 mph W2.1 kmh W 3.1 mph5.0 kmh 27.58 in934.0 mb 0.00 in0.0 mm 0.00 in/hr0.0 mm/hr 0.00 in0.0 mm
01:37 AM 65.9°F18.8°C 43.9°F6.6°C 45% 1.2 mph WNW1.9 kmh WNW 2.7 mph4.3 kmh 27.58 in934.0 mb 0.00 in0.0 mm 0.00 in/hr0.0 mm/hr 0.00 in0.0 mm
01:32 AM 66.0°F18.9°C 44.1°F6.7°C 45% 0.9 mph NW1.4 kmh NW 2.7 mph4.3 kmh 27.58 in934.0 mb 0.00 in0.0 mm 0.00 in/hr0.0 mm/hr 0.00 in0.0 mm
01:27 AM 66.0°F18.9°C 44.1°F6.7°C 45% 0.4 mph SE0.6 kmh SE -- 27.58 in934.0 mb 0.00 in0.0 mm 0.00 in/hr0.0 mm/hr 0.00 in0.0 mm
01:22 AM 66.1°F18.9°C 44.2°F6.8°C 45% - N16091.8 kmh N -- 27.58 in934.0 mb 0.00 in0.0 mm 0.00 in/hr0.0 mm/hr 0.00 in0.0 mm
01:17 AM 66.2°F19.0°C 44.3°F6.8°C 45% - N16091.8 kmh N -- 27.58 in934.0 mb 0.00 in0.0 mm 0.00 in/hr0.0 mm/hr 0.00 in0.0 mm
01:12 AM 66.3°F19.1°C 44.1°F6.7°C 45% - N16091.8 kmh N -- 27.58 in934.0 mb 0.00 in0.0 mm 0.00 in/hr0.0 mm/hr 0.00 in0.0 mm
01:07 AM 66.4°F19.1°C 43.8°F6.6°C 44% - N16091.8 kmh N -- 27.58 in934.0 mb 0.00 in0.0 mm 0.00 in/hr0.0 mm/hr 0.00 in0.0 mm
01:02 AM 66.4°F19.1°C 43.8°F6.6°C 44% Calm Calm -- 27.58 in934.0 mb 0.00 in0.0 mm 0.00 in/hr0.0 mm/hr 0.00 in0.0 mm
12:57 AM 66.3°F19.1°C 44.1°F6.7°C 44% Calm Calm -- 27.58 in934.0 mb 0.00 in0.0 mm 0.00 in/hr0.0 mm/hr 0.04 in1.0 mm
12:52 AM 66.0°F18.9°C 44.1°F6.7°C 45% Calm Calm -- 27.58 in934.0 mb 0.00 in0.0 mm 0.00 in/hr0.0 mm/hr 0.04 in1.0 mm
12:47 AM 65.8°F18.8°C 43.9°F6.6°C 45% Calm Calm -- 27.58 in934.0 mb 0.00 in0.0 mm 0.00 in/hr0.0 mm/hr 0.00 in0.0 mm
12:42 AM 65.9°F18.8°C 44.0°F6.7°C 45% 0.9 mph W1.4 kmh W -- 27.58 in934.0 mb 0.00 in0.0 mm 0.00 in/hr0.0 mm/hr 0.00 in0.0 mm
12:37 AM 66.0°F18.9°C 44.1°F6.7°C 45% 0.9 mph W1.4 kmh W 1.1 mph1.8 kmh 27.61 in935.0 mb 0.00 in0.0 mm 0.00 in/hr0.0 mm/hr 0.00 in0.0 mm
12:32 AM 66.0°F18.9°C 44.1°F6.7°C 45% Calm Calm 2.0 mph3.2 kmh 27.61 in935.0 mb 0.00 in0.0 mm 0.00 in/hr0.0 mm/hr 0.00 in0.0 mm
12:27 AM 66.1°F18.9°C 44.2°F6.8°C 45% 0.4 mph N0.6 kmh N 2.0 mph3.2 kmh 27.61 in935.0 mb 0.00 in0.0 mm 0.00 in/hr0.0 mm/hr 0.00 in0.0 mm
12:22 AM 66.2°F19.0°C 44.3°F6.8°C 45% 1.3 mph N2.1 kmh N 2.0 mph3.2 kmh 27.61 in935.0 mb 0.00 in0.0 mm 0.00 in/hr0.0 mm/hr 0.00 in0.0 mm
12:17 AM 66.2°F19.0°C 44.2°F6.8°C 45% Calm Calm 1.1 mph1.8 kmh 27.61 in935.0 mb 0.00 in0.0 mm 0.00 in/hr0.0 mm/hr 0.00 in0.0 mm
12:12 AM 66.4°F19.1°C 43.8°F6.6°C 44% 0.3 mph N0.5 kmh N -- 27.61 in935.0 mb 0.00 in0.0 mm 0.00 in/hr0.0 mm/hr 0.00 in0.0 mm
12:07 AM 66.4°F19.1°C 43.8°F6.6°C 44% Calm Calm -- 27.61 in935.0 mb 0.00 in0.0 mm 0.00 in/hr0.0 mm/hr 0.00 in0.0 mm
12:02 AM 66.5°F19.2°C 44.0°F6.7°C 44% Calm Calm -- 27.61 in935.0 mb 0.00 in0.0 mm 0.00 in/hr0.0 mm/hr 0.00 in0.0 mm